首页
METAR-TAF:

METAR-TAF

机场 :

High Level, 艾伯塔, 加拿大

纬度: 58-37N, 经度: 117-10W, 海拔: 338米

当前天气观测

该预报发布于18分钟前的10:08 UTC
风速10节,风向南转南东,有时为15节阵风
温度 -13°C
湿度 92%
气压 1005 hPa
能見度: 12.9公里
阴天层高于700英尺
小雪

METAR: CYOJ 151008Z AUTO 15010G15KT 8SM -SN OVC007 M13/M14 A2969 RMK SLP088

时间: 03:26 (10:26 UTC)

预报

该预报发布于6分钟前的10:20 UTC
预报有效从15日的 10点(UTC)到 15日的 19点(UTC)
风速10节,风向东南
能見度: 10公里
阴天层高于1200英尺
短暂存在
从 15日的 10点(UTC)到 15日的 15点(UTC)
能見度: 3.2公里
阴天层高于600英尺
小雪, 轻雾
从 15日的 1500点(UTC)
风速3节,风向多变
能見度: 10公里
少量云层高于800英尺
散云层高于6000英尺
短暂存在
从 15日的 15点(UTC)到 15日的 19点(UTC)
多云层高于800英尺
阴天层高于6000英尺

TAF: CYOJ 151020Z 1510/1519 14010KT P6SM OVC012 TEMPO 1510/1515 2SM -SN BR OVC006 FM151500 VRB03KT P6SM FEW008 SCT060 TEMPO 1515/1519 BKN008 OVC060 RMK FCST BASED ON AUTO OBS. NXT FCST BY 151300Z

超过4000个机场的气象观测和天气预报(METAR&TAF报告)。

可查询的气象台以黄色和红色小点在地图上表示。

将鼠标移到小点上方,可查看气象台名称。

然后点击查看天气观测和预报。

如需切换地图:点击带黑十字的绿色按钮放大地图;点击带横线的绿色按钮缩小地图;或者点击绿色箭头查看邻近地区的地图。


METAR-TAF: